Time;durP1;ratioP1;P1;durP2;ratioP2;P2;SDS_P1;SDS_P2;PMS_P1;PMS_P2;Temp;Humidity;BMP_temperature;BMP_pressure;BME280_temperature;BME280_humidity;BME280_pressure;Samples;Min_cycle;Max_cycle;Signal;HPM_P1;HPM_P2
2023/12/14 00:02:13;;;;;;;1.55;1.45;;;;;;;19.40;62.71;101056.41;4985131;28;20019;-37
2023/12/14 00:04:38;;;;;;;1.85;1.50;;;;;;;19.40;62.85;101052.84;4984701;28;20518;-36
2023/12/14 00:07:03;;;;;;;2.03;1.50;;;;;;;19.37;63.36;101061.66;4972737;28;20040;-35
2023/12/14 00:09:29;;;;;;;1.75;1.65;;;;;;;19.35;62.92;101070.19;5004554;28;20060;-36
2023/12/14 00:11:54;;;;;;;2.63;1.60;;;;;;;19.34;62.73;101070.47;5012386;28;20383;-37
2023/12/14 00:14:19;;;;;;;1.67;1.50;;;;;;;19.32;62.89;101081.72;5003968;28;20046;-37
2023/12/14 00:16:45;;;;;;;1.92;1.55;;;;;;;19.31;63.18;101082.84;5008957;28;20319;-36
2023/12/14 00:19:10;;;;;;;1.50;1.40;;;;;;;19.29;63.12;101079.53;5010834;28;20030;-37
2023/12/14 00:21:36;;;;;;;1.60;1.50;;;;;;;19.29;63.05;101085.03;5010541;28;20029;-37
2023/12/14 00:24:01;;;;;;;4.63;1.52;;;;;;;19.28;63.14;101090.81;4993162;28;20433;-36
2023/12/14 00:26:26;;;;;;;2.58;1.42;;;;;;;19.27;63.15;101100.97;5007725;28;20513;-37
2023/12/14 00:28:52;;;;;;;1.40;1.30;;;;;;;19.26;63.01;101109.50;5007082;28;20068;-35
2023/12/14 00:31:17;;;;;;;1.58;1.48;;;;;;;19.26;63.19;101107.56;5002820;28;20155;-36
2023/12/14 00:33:44;;;;;;;1.40;1.30;;;;;;;19.24;62.74;101116.09;5004943;28;20361;-36
2023/12/14 00:36:10;;;;;;;1.92;1.40;;;;;;;19.26;62.78;101120.50;5008066;28;20510;-36
2023/12/14 00:38:35;;;;;;;1.75;1.33;;;;;;;19.26;62.62;101132.31;4985139;28;20155;-36
2023/12/14 00:41:01;;;;;;;2.45;1.50;;;;;;;19.26;62.96;101134.22;4998047;28;20478;-37
2023/12/14 00:43:26;;;;;;;1.40;1.30;;;;;;;19.24;62.76;101138.09;5006477;28;20026;-37
2023/12/14 00:45:52;;;;;;;1.45;1.35;;;;;;;19.24;63.03;101145.50;5007703;28;20045;-37
2023/12/14 00:48:18;;;;;;;1.40;1.30;;;;;;;19.22;62.95;101154.00;5006320;28;20485;-36
2023/12/14 00:50:43;;;;;;;2.97;1.50;;;;;;;19.22;62.99;101155.94;5002231;28;20033;-36
2023/12/14 00:53:08;;;;;;;1.52;1.40;;;;;;;19.20;62.83;101161.72;5009034;28;20304;-35
2023/12/14 00:55:34;;;;;;;1.75;1.50;;;;;;;19.19;63.06;101164.72;5012274;28;20137;-37
2023/12/14 00:57:59;;;;;;;3.33;1.48;;;;;;;19.17;62.74;101162.28;4993938;28;20069;-36
2023/12/14 01:00:24;;;;;;;1.85;1.52;;;;;;;19.16;63.02;101174.34;5017027;28;20040;-35
2023/12/14 01:02:50;;;;;;;1.30;1.20;;;;;;;19.15;63.01;101166.41;4995497;28;20140;-37
2023/12/14 01:05:15;;;;;;;2.40;1.60;;;;;;;19.14;62.82;101164.75;5014633;28;20034;-35
2023/12/14 01:07:40;;;;;;;2.33;1.38;;;;;;;19.12;63.04;101177.97;5009011;28;20109;-37
2023/12/14 01:10:06;;;;;;;1.30;1.30;;;;;;;19.11;62.78;101185.34;5007919;28;20297;-37
2023/12/14 01:12:32;;;;;;;2.63;1.50;;;;;;;19.10;62.78;101191.13;5005589;28;20121;-36
2023/12/14 01:14:57;;;;;;;2.38;1.38;;;;;;;19.07;62.66;101198.00;5003801;28;20101;-36
2023/12/14 01:17:23;;;;;;;1.55;1.30;;;;;;;19.07;62.85;101193.31;4992542;28;20064;-37
2023/12/14 01:19:48;;;;;;;1.55;1.45;;;;;;;19.06;62.68;101199.91;5006293;28;20429;-35
2023/12/14 01:22:13;;;;;;;1.52;1.40;;;;;;;19.05;62.66;101202.94;5011449;28;20039;-37
2023/12/14 01:24:39;;;;;;;3.05;1.52;;;;;;;19.02;62.68;101203.50;5004687;28;20033;-37
2023/12/14 01:27:04;;;;;;;2.35;1.40;;;;;;;19.02;62.90;101204.31;4985608;28;20517;-36
2023/12/14 01:29:30;;;;;;;1.40;1.30;;;;;;;19.01;62.76;101216.41;4991920;28;20040;-37
2023/12/14 01:31:55;;;;;;;1.60;1.40;;;;;;;19.00;62.81;101223.00;5004608;28;20018;-36
2023/12/14 01:34:20;;;;;;;2.05;1.33;;;;;;;18.99;62.76;101221.34;5010089;28;20026;-36
2023/12/14 01:36:46;;;;;;;1.60;1.50;;;;;;;18.99;62.80;101229.56;5000069;28;20446;-36
2023/12/14 01:39:11;;;;;;;2.22;1.33;;;;;;;18.98;62.60;101232.59;5004858;28;20471;-36
2023/12/14 01:41:37;;;;;;;1.83;1.40;;;;;;;18.97;62.99;101240.03;5001369;28;20062;-35
2023/12/14 01:44:02;;;;;;;1.58;1.48;;;;;;;18.95;62.68;101242.22;5002549;28;20043;-35
2023/12/14 01:46:27;;;;;;;1.50;1.40;;;;;;;18.95;62.70;101246.91;5003084;28;20080;-36
2023/12/14 01:48:53;;;;;;;2.53;1.45;;;;;;;18.95;62.61;101252.41;5003263;28;20025;-37
2023/12/14 01:51:18;;;;;;;2.17;1.60;;;;;;;18.95;62.62;101266.94;5015634;28;20021;-37
2023/12/14 01:53:44;;;;;;;1.85;1.40;;;;;;;18.93;62.75;101252.66;4990594;28;20018;-36
2023/12/14 01:56:10;;;;;;;2.47;1.70;;;;;;;18.92;62.65;101268.31;5006810;28;20033;-37
2023/12/14 01:58:35;;;;;;;3.55;1.80;;;;;;;18.91;62.52;101268.59;5001318;28;20260;-35
2023/12/14 02:01:11;;;;;;;3.50;1.70;;;;;;;18.91;62.79;101277.66;4998522;28;20030;-37
2023/12/14 02:03:44;;;;;;;2.38;1.60;;;;;;;18.91;62.66;101274.09;5003718;28;20040;-37
2023/12/14 02:06:09;;;;;;;2.30;1.70;;;;;;;18.89;62.73;101285.28;5001681;28;20030;-36
2023/12/14 02:08:35;;;;;;;2.35;1.73;;;;;;;18.89;62.62;101287.22;5009533;28;20040;-36
2023/12/14 02:11:03;;;;;;;3.35;1.80;;;;;;;18.87;62.71;101293.00;5011337;28;20545;-36
2023/12/14 02:13:28;;;;;;;2.55;1.67;;;;;;;18.86;62.63;101298.75;5003950;28;20052;-35
2023/12/14 02:15:53;;;;;;;5.75;1.70;;;;;;;18.86;62.75;101299.59;5004645;28;20025;-37
2023/12/14 02:18:19;;;;;;;3.17;1.75;;;;;;;18.86;62.60;101309.72;5005327;28;20561;-37
2023/12/14 02:20:44;;;;;;;2.67;1.77;;;;;;;18.85;62.62;101314.41;4972503;28;20033;-37
2023/12/14 02:23:10;;;;;;;4.15;1.80;;;;;;;18.84;62.59;101309.19;4984963;28;20462;-36
2023/12/14 02:25:35;;;;;;;2.17;1.80;;;;;;;18.83;62.49;101316.59;4983727;28;20128;-37
2023/12/14 02:28:00;;;;;;;2.75;1.80;;;;;;;18.81;62.61;101326.19;5005679;28;20100;-35
2023/12/14 02:30:26;;;;;;;2.80;1.90;;;;;;;18.81;62.52;101329.78;5006055;28;20103;-40
2023/12/14 02:32:51;;;;;;;2.60;1.83;;;;;;;18.80;62.79;101330.88;4983834;28;20198;-39
2023/12/14 02:35:18;;;;;;;2.40;1.85;;;;;;;18.80;62.59;101339.13;5001309;28;20029;-37
2023/12/14 02:37:43;;;;;;;1.95;1.73;;;;;;;18.79;62.68;101344.88;5012420;28;20069;-36
2023/12/14 02:40:10;;;;;;;3.33;1.80;;;;;;;18.77;62.52;101348.72;5011805;28;20430;-37
2023/12/14 02:42:35;;;;;;;2.13;1.80;;;;;;;18.76;62.56;101341.56;5009444;28;20041;-35
2023/12/14 02:45:02;;;;;;;2.47;1.92;;;;;;;18.76;62.70;101338.81;5000992;28;20026;-35
2023/12/14 02:47:28;;;;;;;4.65;1.98;;;;;;;18.75;62.41;101337.19;5002782;28;20041;-35
2023/12/14 02:49:54;;;;;;;2.88;1.90;;;;;;;18.74;62.64;101346.50;4992822;28;20021;-35
2023/12/14 02:52:19;;;;;;;2.05;1.83;;;;;;;18.74;62.65;101340.19;5004997;28;20406;-36
2023/12/14 02:54:45;;;;;;;3.65;1.90;;;;;;;18.73;62.35;101341.28;5007531;28;20080;-36
2023/12/14 02:57:10;;;;;;;2.78;1.92;;;;;;;18.73;62.31;101335.78;5005843;28;20026;-38
2023/12/14 02:59:35;;;;;;;2.30;1.80;;;;;;;18.72;62.60;101345.13;5004895;28;20034;-37
2023/12/14 03:02:01;;;;;;;2.90;2.00;;;;;;;18.70;62.28;101353.63;5004305;28;20033;-37
2023/12/14 03:04:26;;;;;;;4.50;1.90;;;;;;;18.70;62.55;101348.16;5006111;28;20029;-37
2023/12/14 03:06:52;;;;;;;3.95;1.90;;;;;;;18.70;62.58;101366.53;4995907;28;20017;-37
2023/12/14 03:09:18;;;;;;;2.40;1.85;;;;;;;18.67;62.43;101376.13;5012289;28;20030;-36
2023/12/14 03:11:44;;;;;;;3.97;1.92;;;;;;;18.66;62.36;101362.66;5009663;28;20022;-35
2023/12/14 03:14:09;;;;;;;2.58;1.83;;;;;;;18.65;62.18;101372.84;5013818;28;20669;-35
2023/12/14 03:16:38;;;;;;;3.75;2.28;;;;;;;18.65;62.17;101377.50;4992301;28;20054;-37
2023/12/14 03:19:03;;;;;;;1.83;1.67;;;;;;;18.64;62.27;101365.69;4987328;28;20271;-36
2023/12/14 03:21:29;;;;;;;3.13;2.00;;;;;;;18.63;62.48;101375.03;4982848;28;20450;-37
2023/12/14 03:23:54;;;;;;;3.03;2.00;;;;;;;18.62;62.33;101367.06;4948565;28;20023;-37
2023/12/14 03:26:20;;;;;;;4.00;1.73;;;;;;;18.62;62.22;101369.81;4985220;28;20026;-37
2023/12/14 03:28:45;;;;;;;2.75;2.00;;;;;;;18.61;62.45;101371.72;4985548;28;20535;-38
2023/12/14 03:31:12;;;;;;;3.10;2.05;;;;;;;18.59;62.41;101369.25;4966001;28;20018;-36
2023/12/14 03:33:37;;;;;;;2.95;1.92;;;;;;;18.59;62.20;101379.41;4967182;28;20121;-37
2023/12/14 03:36:03;;;;;;;3.33;2.13;;;;;;;18.58;62.42;101384.06;4967406;28;20550;-35
2023/12/14 03:38:29;;;;;;;2.72;1.92;;;;;;;18.57;62.15;101378.84;4983860;28;20077;-36
2023/12/14 03:40:54;;;;;;;2.28;1.60;;;;;;;18.58;62.35;101386.00;4983260;28;20619;-35
2023/12/14 03:43:19;;;;;;;3.35;2.03;;;;;;;18.56;62.17;101379.94;4985965;28;20034;-37
2023/12/14 03:45:45;;;;;;;4.10;1.95;;;;;;;18.55;62.42;101392.84;4985898;28;20022;-38
2023/12/14 03:48:10;;;;;;;3.55;2.13;;;;;;;18.55;62.34;101397.47;4985072;28;20022;-36
2023/12/14 03:50:36;;;;;;;2.72;1.80;;;;;;;18.54;62.33;101399.41;4984035;28;20069;-35
2023/12/14 03:53:01;;;;;;;2.88;2.05;;;;;;;18.54;62.14;101398.56;4984885;28;20042;-35
2023/12/14 03:55:27;;;;;;;3.08;1.80;;;;;;;18.53;62.39;101396.94;4985556;28;20030;-35
2023/12/14 03:57:52;;;;;;;2.55;1.73;;;;;;;18.54;62.10;101401.31;4982182;28;20490;-35
2023/12/14 04:00:17;;;;;;;3.25;1.88;;;;;;;18.53;62.12;101403.25;4984918;28;20030;-36
2023/12/14 04:02:43;;;;;;;3.80;2.28;;;;;;;18.53;62.08;101405.19;4984320;28;20478;-36
2023/12/14 04:05:09;;;;;;;4.43;2.00;;;;;;;18.52;62.27;101409.81;4985055;28;20806;-37
2023/12/14 04:07:36;;;;;;;3.08;2.10;;;;;;;18.52;62.09;101409.81;4967880;28;20093;-36
2023/12/14 04:10:02;;;;;;;2.80;1.98;;;;;;;18.52;62.14;101409.81;4965914;28;20105;-37
2023/12/14 04:12:27;;;;;;;2.22;1.80;;;;;;;18.52;61.99;101409.00;4983659;28;20125;-35
2023/12/14 04:14:52;;;;;;;3.83;1.80;;;;;;;18.51;62.17;101426.56;4985383;28;20085;-36
2023/12/14 04:17:18;;;;;;;3.20;2.08;;;;;;;18.50;61.75;101425.72;4992213;28;20056;-37
2023/12/14 04:19:43;;;;;;;2.85;1.90;;;;;;;18.49;62.15;101421.34;5003654;28;20493;-35
2023/12/14 04:22:08;;;;;;;3.03;1.92;;;;;;;18.49;61.89;101439.72;5002941;28;20092;-35
2023/12/14 04:24:34;;;;;;;4.55;2.15;;;;;;;18.48;61.96;101443.56;5004414;28;20080;-36
2023/12/14 04:27:00;;;;;;;2.78;1.80;;;;;;;18.46;62.21;101443.84;4969400;28;20025;-35
2023/12/14 04:29:25;;;;;;;4.18;1.83;;;;;;;18.46;61.91;101457.56;5004291;28;20033;-36
2023/12/14 04:31:51;;;;;;;3.15;1.80;;;;;;;18.46;61.95;101459.47;5001775;28;20032;-37
2023/12/14 04:34:17;;;;;;;3.90;1.95;;;;;;;18.44;61.93;101460.56;4987795;28;20139;-38
2023/12/14 04:36:44;;;;;;;2.60;1.77;;;;;;;18.44;61.95;101477.03;5003961;28;20097;-38
2023/12/14 04:39:09;;;;;;;2.47;1.50;;;;;;;18.43;61.80;101480.06;5004745;28;20022;-37
2023/12/14 04:41:34;;;;;;;3.67;2.10;;;;;;;18.41;62.14;101488.53;5002472;28;20065;-37
2023/12/14 04:44:00;;;;;;;4.05;1.90;;;;;;;18.41;62.04;101505.00;5004258;28;20053;-37
2023/12/14 04:46:25;;;;;;;2.50;1.77;;;;;;;18.40;61.98;101513.50;5001901;28;20073;-37
2023/12/14 04:48:50;;;;;;;2.55;1.90;;;;;;;18.39;61.88;101515.44;4983901;28;20026;-37
2023/12/14 04:51:16;;;;;;;2.45;1.80;;;;;;;18.39;61.73;101514.59;5006259;28;20416;-37
2023/12/14 04:53:41;;;;;;;3.40;1.92;;;;;;;18.38;62.01;101522.00;5003861;28;20097;-37
2023/12/14 04:56:11;;;;;;;2.67;1.80;;;;;;;18.40;62.00;101527.22;4969121;28;20029;-36
2023/12/14 04:58:38;;;;;;;2.92;1.80;;;;;;;18.42;62.06;101528.63;5003572;28;20074;-35
2023/12/14 05:01:03;;;;;;;2.60;1.70;;;;;;;18.49;61.99;101533.06;4984761;28;20509;-35
2023/12/14 05:03:29;;;;;;;2.88;1.83;;;;;;;18.53;61.91;101529.53;5003145;28;20064;-35
2023/12/14 05:05:54;;;;;;;2.10;1.60;;;;;;;18.59;61.88;101536.69;5001227;28;20159;-35
2023/12/14 05:08:19;;;;;;;2.47;1.60;;;;;;;18.65;61.55;101532.09;5002462;28;20029;-37
2023/12/14 05:10:45;;;;;;;2.45;1.80;;;;;;;18.74;61.40;101541.47;5002314;28;20451;-36
2023/12/14 05:13:10;;;;;;;2.15;1.55;;;;;;;18.82;61.62;101553.88;5003167;28;20022;-35
2023/12/14 05:15:35;;;;;;;2.65;1.60;;;;;;;18.91;61.46;101554.25;5002442;28;20398;-35
2023/12/14 05:18:01;;;;;;;3.70;1.77;;;;;;;19.00;61.50;101560.88;4970563;28;20450;-37
2023/12/14 05:20:26;;;;;;;2.03;1.50;;;;;;;19.10;61.33;101567.53;5002508;28;20049;-36
2023/12/14 05:22:51;;;;;;;2.42;1.88;;;;;;;19.20;61.08;101562.06;5003896;28;20040;-36
2023/12/14 05:25:17;;;;;;;3.63;1.55;;;;;;;19.29;61.00;101556.88;5001833;28;20545;-36
2023/12/14 05:27:42;;;;;;;2.13;1.42;;;;;;;19.37;60.89;101565.47;5002908;28;20289;-36
2023/12/14 05:30:08;;;;;;;1.60;1.50;;;;;;;19.47;61.19;101563.84;4979844;28;20030;-37
2023/12/14 05:32:33;;;;;;;3.30;1.48;;;;;;;19.54;60.71;101556.16;5003673;28;20026;-37
2023/12/14 05:34:59;;;;;;;2.10;1.40;;;;;;;19.63;60.45;101561.97;4986297;28;20121;-36
2023/12/14 05:37:25;;;;;;;3.05;1.77;;;;;;;19.71;60.28;101561.44;5002480;28;20049;-36
2023/12/14 05:39:50;;;;;;;3.15;1.50;;;;;;;19.78;60.33;101562.00;5002021;28;20029;-35
2023/12/14 05:42:17;;;;;;;2.50;1.50;;;;;;;19.85;60.37;101572.78;5002455;28;20033;-35
2023/12/14 05:44:44;;;;;;;3.20;1.95;;;;;;;19.90;60.25;101569.22;4983488;28;20483;-35
2023/12/14 05:47:09;;;;;;;2.15;1.50;;;;;;;19.93;60.04;101575.00;5002276;28;20028;-35
2023/12/14 05:49:35;;;;;;;1.63;1.33;;;;;;;19.96;59.89;101576.38;5001812;28;20030;-36
2023/12/14 05:52:00;;;;;;;2.40;1.55;;;;;;;19.96;59.95;101579.97;5002917;28;20018;-37
2023/12/14 05:54:25;;;;;;;2.55;1.40;;;;;;;19.95;59.90;101593.97;5001853;28;20041;-35
2023/12/14 05:56:51;;;;;;;2.83;1.40;;;;;;;19.93;59.84;101598.94;5001453;28;20476;-35
2023/12/14 05:59:17;;;;;;;1.88;1.42;;;;;;;19.90;60.13;101596.72;5002334;28;20033;-36
2023/12/14 06:01:43;;;;;;;2.95;1.60;;;;;;;19.87;59.89;101603.59;5003355;28;20053;-35
2023/12/14 06:04:08;;;;;;;1.42;1.27;;;;;;;19.85;60.03;101605.78;5001663;28;20113;-37
2023/12/14 06:06:34;;;;;;;1.88;1.23;;;;;;;19.84;60.06;101609.63;5002908;28;20038;-35
2023/12/14 06:08:59;;;;;;;1.95;1.35;;;;;;;19.81;59.93;101616.47;5002083;28;20014;-36
2023/12/14 06:11:24;;;;;;;1.90;1.40;;;;;;;19.79;60.10;101623.34;5002324;28;20106;-36
2023/12/14 06:13:50;;;;;;;2.47;1.50;;;;;;;19.78;60.13;101624.44;5002097;28;20092;-36
2023/12/14 06:16:15;;;;;;;1.75;1.50;;;;;;;19.76;59.97;101632.94;5000935;28;20506;-36
2023/12/14 06:18:44;;;;;;;1.90;1.40;;;;;;;19.75;60.03;101635.97;5002034;28;20053;-38
2023/12/14 06:21:11;;;;;;;3.33;1.60;;;;;;;19.72;60.04;101643.66;5001598;28;20026;-36
2023/12/14 06:23:36;;;;;;;1.45;1.23;;;;;;;19.69;60.03;101649.72;5000574;28;20129;-37
2023/12/14 06:26:05;;;;;;;1.52;1.40;;;;;;;19.67;59.63;101668.41;5000688;28;20108;-37
2023/12/14 06:28:33;;;;;;;1.67;1.30;;;;;;;19.64;59.77;101668.13;4985214;28;20034;-36
2023/12/14 06:30:58;;;;;;;1.98;1.38;;;;;;;19.63;59.74;101682.94;5000609;28;20069;-36
2023/12/14 06:33:24;;;;;;;1.73;1.30;;;;;;;19.62;59.91;101682.13;5001703;28;20081;-36
2023/12/14 06:35:49;;;;;;;1.83;1.30;;;;;;;19.64;59.76;101687.34;5003342;28;20025;-37
2023/12/14 06:38:15;;;;;;;1.83;1.38;;;;;;;19.64;59.66;101687.34;4982396;28;20572;-36
2023/12/14 06:40:40;;;;;;;1.48;1.23;;;;;;;19.64;59.84;101690.91;5000056;28;20465;-36
2023/12/14 06:43:06;;;;;;;2.63;1.35;;;;;;;19.66;59.83;101698.94;4999156;28;20026;-35
2023/12/14 06:45:31;;;;;;;2.00;1.40;;;;;;;19.65;59.74;101703.59;5001158;28;20129;-35
2023/12/14 06:47:56;;;;;;;4.13;1.27;;;;;;;19.66;59.50;101712.69;4982653;28;20052;-37
2023/12/14 06:50:22;;;;;;;3.13;1.30;;;;;;;19.65;59.90;101711.84;5001669;28;20108;-36
2023/12/14 06:52:47;;;;;;;1.85;1.40;;;;;;;19.65;59.79;101722.84;5001709;28;20060;-37
2023/12/14 06:55:14;;;;;;;1.60;1.23;;;;;;;19.65;59.50;101724.78;5001596;28;20022;-37
2023/12/14 06:57:42;;;;;;;1.65;1.20;;;;;;;19.62;59.51;101731.63;5002511;28;20583;-38
2023/12/14 07:00:09;;;;;;;2.95;1.42;;;;;;;19.60;59.81;101736.56;5001411;28;20084;-38
2023/12/14 07:02:34;;;;;;;3.65;1.35;;;;;;;19.56;59.41;101733.50;5000797;28;20532;-37
2023/12/14 07:05:00;;;;;;;1.40;1.20;;;;;;;19.55;59.83;101733.78;5002159;28;20022;-37
2023/12/14 07:07:25;;;;;;;3.45;1.50;;;;;;;19.52;59.72;101732.41;4999980;28;20084;-36
2023/12/14 07:09:51;;;;;;;1.60;1.20;;;;;;;19.49;59.47;101732.09;5002119;28;20026;-37
2023/12/14 07:12:17;;;;;;;2.72;1.50;;;;;;;19.46;59.43;101727.97;4983391;28;20341;-37
2023/12/14 07:14:43;;;;;;;1.80;1.40;;;;;;;19.45;59.69;101737.31;5001233;28;20092;-37
2023/12/14 07:17:08;;;;;;;2.70;1.40;;;;;;;19.42;59.70;101743.31;4983512;28;20355;-37
2023/12/14 07:19:35;;;;;;;1.67;1.30;;;;;;;19.40;59.53;101762.00;5001525;28;20510;-36
2023/12/14 07:22:01;;;;;;;1.42;1.33;;;;;;;19.39;59.74;101754.84;4999136;28;20034;-36
2023/12/14 07:24:26;;;;;;;2.45;1.30;;;;;;;19.37;59.75;101766.13;5001609;28;20025;-37
2023/12/14 07:26:51;;;;;;;3.00;1.40;;;;;;;19.35;59.52;101771.03;5000572;28;20545;-37
2023/12/14 07:29:17;;;;;;;1.83;1.33;;;;;;;19.34;59.57;101766.63;5001403;28;20044;-37
2023/12/14 07:31:42;;;;;;;2.42;1.45;;;;;;;19.31;59.51;101772.69;5000493;28;20429;-36
2023/12/14 07:34:07;;;;;;;2.83;1.52;;;;;;;19.30;59.72;101772.91;5001076;28;20061;-36
2023/12/14 07:36:33;;;;;;;2.65;1.40;;;;;;;19.28;59.35;101773.19;4999691;28;20132;-36
2023/12/14 07:39:00;;;;;;;2.15;1.30;;;;;;;19.26;59.52;101766.31;5000351;28;20026;-37
2023/12/14 07:41:29;;;;;;;2.08;1.40;;;;;;;19.24;59.62;101772.06;4999313;28;20421;-36
2023/12/14 07:43:55;;;;;;;1.98;1.30;;;;;;;19.23;59.43;101776.72;4982429;28;20065;-38
2023/12/14 07:46:20;;;;;;;2.03;1.45;;;;;;;19.20;59.43;101769.00;5001579;28;20107;-37
2023/12/14 07:48:46;;;;;;;2.25;1.50;;;;;;;19.18;59.47;101768.44;4998910;28;20602;-37
2023/12/14 07:51:11;;;;;;;1.58;1.38;;;;;;;19.17;59.22;101774.19;5001089;28;20026;-37
2023/12/14 07:53:37;;;;;;;3.60;1.73;;;;;;;19.13;59.37;101775.78;4985127;28;20128;-38
2023/12/14 07:56:03;;;;;;;2.83;1.38;;;;;;;19.10;59.13;101771.66;4985205;28;20032;-38
2023/12/14 07:58:28;;;;;;;2.45;1.45;;;;;;;19.07;59.48;101784.00;5002955;28;20029;-37
2023/12/14 08:00:54;;;;;;;3.70;1.60;;;;;;;19.04;59.30;101781.78;5005026;28;20025;-37
2023/12/14 08:03:19;;;;;;;1.67;1.40;;;;;;;19.01;59.06;101785.06;5003949;28;20422;-36
2023/12/14 08:05:44;;;;;;;3.05;1.70;;;;;;;18.99;59.41;101789.97;5004163;28;20546;-36
2023/12/14 08:08:10;;;;;;;1.63;1.20;;;;;;;18.97;59.10;101805.91;5005266;28;20069;-37
2023/12/14 08:10:35;;;;;;;2.58;1.50;;;;;;;18.95;59.18;101808.06;5002333;28;20104;-37
2023/12/14 08:13:00;;;;;;;2.03;1.52;;;;;;;18.92;59.20;101812.16;5003480;28;20063;-37
2023/12/14 08:15:26;;;;;;;2.33;1.40;;;;;;;18.92;58.99;101825.91;5002177;28;20030;-36
2023/12/14 08:17:51;;;;;;;2.30;1.30;;;;;;;18.91;59.15;101826.16;5004008;28;20112;-35
2023/12/14 08:20:17;;;;;;;2.22;1.60;;;;;;;18.88;58.93;101827.50;5002788;28;20053;-35
2023/12/14 08:22:44;;;;;;;1.98;1.50;;;;;;;18.88;59.23;101838.47;5004250;28;20036;-35
2023/12/14 08:25:16;;;;;;;3.03;1.73;;;;;;;18.86;59.07;101839.78;4981818;28;20189;-37
2023/12/14 08:27:42;;;;;;;2.75;1.60;;;;;;;18.85;59.25;101847.22;5004300;28;20034;-36
2023/12/14 08:30:08;;;;;;;1.83;1.50;;;;;;;18.84;58.94;101848.31;4999886;28;20358;-36
2023/12/14 08:32:34;;;;;;;1.88;1.50;;;;;;;18.83;58.93;101852.13;4985516;28;20048;-37
2023/12/14 08:34:59;;;;;;;1.70;1.30;;;;;;;18.81;59.07;101864.47;5003455;28;20042;-38
2023/12/14 08:37:25;;;;;;;2.05;1.50;;;;;;;18.81;58.98;101872.72;5002296;28;20042;-37
2023/12/14 08:39:50;;;;;;;3.35;1.70;;;;;;;18.78;58.94;101876.78;5002959;28;20030;-36
2023/12/14 08:42:15;;;;;;;1.90;1.50;;;;;;;18.79;58.76;101877.66;5002699;28;20120;-36
2023/12/14 08:44:41;;;;;;;1.92;1.60;;;;;;;18.77;58.90;101875.13;4982639;28;20045;-36
2023/12/14 08:47:08;;;;;;;2.20;1.63;;;;;;;18.77;58.79;101875.13;5003070;28;20030;-36
2023/12/14 08:49:34;;;;;;;4.05;1.50;;;;;;;18.77;58.91;101883.38;5004204;28;20494;-37
2023/12/14 08:52:00;;;;;;;2.78;1.55;;;;;;;18.77;58.91;101880.63;4995171;28;20026;-37
2023/12/14 08:54:25;;;;;;;2.85;1.70;;;;;;;18.76;58.92;101889.94;5002764;28;20065;-36
2023/12/14 08:56:51;;;;;;;2.08;1.50;;;;;;;18.75;58.75;101893.81;5002918;28;20030;-37
2023/12/14 08:59:16;;;;;;;2.30;1.75;;;;;;;18.74;58.76;101897.63;5002109;28;20804;-36
2023/12/14 09:01:42;;;;;;;2.97;1.70;;;;;;;18.74;58.82;101894.88;5002870;28;20030;-36
2023/12/14 09:04:07;;;;;;;2.60;1.50;;;;;;;18.72;58.92;101895.16;5001010;28;20029;-36
2023/12/14 09:06:32;;;;;;;87.57;5.15;;;;;;;18.72;58.87;101908.88;5001983;28;20108;-38
2023/12/14 09:08:58;;;;;;;5.78;1.85;;;;;;;18.76;59.47;101903.69;5002250;28;20064;-36
2023/12/14 09:11:23;;;;;;;3.35;1.73;;;;;;;18.82;59.15;101910.06;5001867;28;20053;-35
2023/12/14 09:13:48;;;;;;;4.85;1.90;;;;;;;18.91;58.97;101908.56;4984845;28;20463;-37
2023/12/14 09:16:14;;;;;;;2.28;1.80;;;;;;;19.02;58.25;101909.53;5002311;28;20057;-37
2023/12/14 09:18:39;;;;;;;1.90;1.67;;;;;;;19.12;58.49;101912.38;5001416;28;20037;-36
2023/12/14 09:21:05;;;;;;;5.13;1.73;;;;;;;19.22;58.29;101911.66;5001638;28;20033;-38
2023/12/14 09:23:30;;;;;;;4.78;1.88;;;;;;;19.30;58.25;101919.44;5003785;28;20319;-38
2023/12/14 09:25:56;;;;;;;3.78;1.65;;;;;;;19.38;57.80;101918.13;5003753;28;20030;-37
2023/12/14 09:28:22;;;;;;;1.85;1.60;;;;;;;19.46;57.66;101923.16;5001785;28;20033;-37
2023/12/14 09:30:47;;;;;;;2.53;1.75;;;;;;;19.54;57.84;101936.41;4986238;28;20028;-38
2023/12/14 09:33:12;;;;;;;5.28;1.83;;;;;;;19.62;57.75;101937.03;5003186;28;20061;-37
2023/12/14 09:35:38;;;;;;;3.97;1.70;;;;;;;19.68;57.76;101944.22;4998498;28;20685;-38
2023/12/14 09:38:07;;;;;;;20.70;2.10;;;;;;;19.75;57.86;101942.09;5017263;28;20080;-37
2023/12/14 09:40:34;;;;;;;4.53;1.50;;;;;;;19.80;57.76;101955.88;5001369;28;20034;-38
2023/12/14 09:43:00;;;;;;;4.70;1.80;;;;;;;19.86;57.69;101962.31;5004059;28;20034;-38
2023/12/14 09:45:28;;;;;;;81.85;4.22;;;;;;;19.91;57.31;101961.53;5002476;28;20597;-38
2023/12/14 09:47:54;;;;;;;2.88;1.70;;;;;;;19.93;57.52;101964.84;5002467;28;20029;-35
2023/12/14 09:50:20;;;;;;;3.88;1.60;;;;;;;19.97;57.17;101963.22;4997107;28;20031;-34
2023/12/14 09:52:48;;;;;;;6.88;1.80;;;;;;;19.99;56.95;101972.06;4997140;28;20022;-35
2023/12/14 09:55:14;;;;;;;3.45;1.77;;;;;;;20.01;56.98;101969.84;5002163;28;20029;-35
2023/12/14 09:57:39;;;;;;;6.63;1.83;;;;;;;19.99;57.09;101967.38;4997091;28;20541;-38
2023/12/14 10:00:10;;;;;;;5.22;2.35;;;;;;;20.02;56.67;101974.25;4998789;28;20029;-36
2023/12/14 10:02:35;;;;;;;3.63;1.77;;;;;;;20.03;56.38;101973.16;5002204;28;20482;-37
2023/12/14 10:05:02;;;;;;;3.53;1.88;;;;;;;20.01;56.41;101976.19;5002846;28;20181;-35
2023/12/14 10:07:27;;;;;;;2.15;1.60;;;;;;;20.03;56.11;101973.16;5002427;28;20061;-37
2023/12/14 10:09:53;;;;;;;1.95;1.60;;;;;;;20.04;56.17;101980.34;5000222;28;20026;-38
2023/12/14 10:12:19;;;;;;;4.05;1.45;;;;;;;20.06;56.43;101988.31;4982865;28;20030;-35
2023/12/14 10:14:44;;;;;;;3.35;1.60;;;;;;;20.06;56.35;101988.31;5001032;28;20029;-36
2023/12/14 10:17:31;;;;;;;2.70;1.58;;;;;;;20.08;56.36;101978.72;5001749;28;20057;-37
2023/12/14 10:20:00;;;;;;;3.38;1.88;;;;;;;20.11;56.41;101982.84;5003790;28;20058;-37
2023/12/14 10:22:26;;;;;;;3.33;1.75;;;;;;;20.10;56.28;101982.03;4994535;28;20034;-37
2023/12/14 10:24:51;;;;;;;7.25;1.75;;;;;;;20.13;56.06;101987.00;4978635;28;20106;-38
2023/12/14 10:27:17;;;;;;;4.47;1.80;;;;;;;20.14;56.10;101985.09;5005359;28;20415;-36
2023/12/14 10:29:44;;;;;;;3.13;1.80;;;;;;;20.16;56.06;101988.41;5000054;28;20483;-35
2023/12/14 10:32:11;;;;;;;4.88;1.90;;;;;;;20.17;55.70;101990.91;5010129;28;20022;-35
2023/12/14 10:34:37;;;;;;;4.57;2.13;;;;;;;20.19;56.11;101988.69;5002648;28;20071;-36
2023/12/14 10:37:05;;;;;;;3.20;1.75;;;;;;;20.22;55.85;101984.63;4984045;28;20057;-37
2023/12/14 10:39:36;;;;;;;1.88;1.45;;;;;;;20.26;55.99;101987.66;5004031;28;20092;-39
2023/12/14 10:42:05;;;;;;;7.05;1.90;;;;;;;20.29;55.95;101993.44;4983478;28;20113;-35
2023/12/14 10:44:35;;;;;;;7.93;2.72;;;;;;;20.32;56.32;101997.63;5004856;28;20028;-38
2023/12/14 10:47:04;;;;;;;12.50;3.83;;;;;;;20.35;56.27;102002.56;5006880;28;20112;-37
2023/12/14 10:49:29;;;;;;;18.08;4.75;;;;;;;20.40;56.25;102015.56;4985549;28;20040;-34
2023/12/14 10:51:56;;;;;;;14.98;4.05;;;;;;;20.42;56.38;102019.69;5000889;28;20029;-37
2023/12/14 10:54:24;;;;;;;21.20;4.85;;;;;;;20.44;56.08;102019.44;4980695;28;20615;-36
2023/12/14 10:56:54;;;;;;;19.58;4.57;;;;;;;20.46;56.20;102020.81;4966343;28;20039;-37
2023/12/14 10:59:19;;;;;;;19.10;4.90;;;;;;;20.49;56.29;102022.22;4999541;28;20199;-35
2023/12/14 11:01:52;;;;;;;14.85;5.63;;;;;;;20.52;56.61;102017.00;5006532;28;20040;-40
2023/12/14 11:04:19;;;;;;;23.17;5.93;;;;;;;20.54;56.17;102027.78;4986179;28;20215;-36
2023/12/14 11:06:48;;;;;;;19.85;5.40;;;;;;;20.54;55.93;102022.25;5008239;28;20108;-36
2023/12/14 11:09:15;;;;;;;13.57;5.43;;;;;;;20.55;55.78;102037.69;5000831;28;20446;-38
2023/12/14 11:11:59;;;;;;;16.80;5.00;;;;;;;20.55;55.58;102032.19;5002030;28;20457;-38
2023/12/14 11:14:28;;;;;;;11.32;4.60;;;;;;;20.56;56.38;102033.81;5000424;28;20378;-37
2023/12/14 11:17:01;;;;;;;15.98;4.72;;;;;;;20.57;56.63;102034.66;4983653;28;20033;-38
2023/12/14 11:19:29;;;;;;;14.32;4.28;;;;;;;20.57;57.10;102040.19;5000229;28;20052;-36